createdAt,value
2023-03-23T15:58:55.812Z,3.80
2023-03-23T16:02:27.120Z,3.60
2023-03-23T16:05:55.570Z,3.10
2023-03-23T16:09:23.264Z,3.00
2023-03-23T16:12:50.659Z,3.10
2023-03-23T16:16:20.107Z,4.10
2023-03-23T16:19:47.005Z,3.50
2023-03-23T16:23:13.716Z,3.70
2023-03-23T16:26:42.178Z,5.20
2023-03-23T16:30:19.137Z,2.90
2023-03-23T16:33:49.228Z,3.10
2023-03-23T16:37:17.163Z,2.50
2023-03-23T16:40:48.645Z,2.30
2023-03-23T16:44:15.143Z,2.80
2023-03-23T16:47:42.660Z,3.40
2023-03-23T16:51:10.070Z,4.10
2023-03-23T16:54:36.703Z,4.50
2023-03-23T16:58:16.335Z,3.80
2023-03-23T17:01:44.279Z,4.70
2023-03-23T17:05:13.821Z,4.70
2023-03-23T17:08:40.812Z,4.60
2023-03-23T17:12:08.896Z,5.40
2023-03-23T17:15:54.245Z,5.40
2023-03-23T17:19:21.523Z,7.50
2023-03-23T17:22:49.615Z,7.80
2023-03-23T17:26:16.450Z,8.20
2023-03-23T17:29:43.338Z,8.70
2023-03-23T17:33:11.276Z,8.30
2023-03-23T17:36:38.425Z,9.30
2023-03-23T17:40:08.633Z,9.80
2023-03-23T17:43:36.578Z,10.80
2023-03-23T17:47:04.731Z,10.80
2023-03-23T17:50:32.030Z,12.00
2023-03-23T17:53:59.337Z,10.70
2023-03-23T17:57:26.349Z,10.00
2023-03-23T18:00:53.284Z,10.20
2023-03-23T18:04:19.884Z,9.40
2023-03-23T18:07:47.443Z,9.70
2023-03-23T18:11:14.167Z,10.10
2023-03-23T18:14:40.887Z,8.80
2023-03-23T18:18:08.764Z,10.00
2023-03-23T18:21:35.473Z,9.00
2023-03-23T18:25:02.972Z,8.40
2023-03-23T18:28:29.585Z,7.40
2023-03-23T18:31:56.423Z,7.70
2023-03-23T18:35:24.030Z,7.90
2023-03-23T18:38:51.605Z,7.20
2023-03-23T18:42:18.685Z,6.80
2023-03-23T18:45:49.754Z,6.70
2023-03-23T18:49:16.778Z,6.90
2023-03-23T18:52:43.604Z,7.10
2023-03-23T18:56:13.838Z,7.20
2023-03-23T18:59:41.403Z,7.20
2023-03-23T19:03:11.460Z,10.70
2023-03-23T19:06:38.540Z,11.40
2023-03-23T19:10:06.498Z,12.30
2023-03-23T19:13:37.545Z,9.00
2023-03-23T19:17:06.399Z,7.40
2023-03-23T19:21:07.807Z,7.70
2023-03-23T19:24:20.769Z,7.60
2023-03-23T19:28:27.534Z,8.20
2023-03-23T19:31:34.756Z,8.50
2023-03-23T19:35:03.384Z,7.90
2023-03-23T19:38:30.981Z,8.10
2023-03-23T19:41:57.879Z,8.70
2023-03-23T19:45:25.258Z,5.80
2023-03-23T19:48:52.305Z,8.30
2023-03-23T19:52:20.305Z,8.90
2023-03-23T19:55:50.261Z,7.30
2023-03-23T19:59:18.519Z,7.80
2023-03-23T20:02:46.115Z,7.00
2023-03-23T20:06:22.735Z,6.90
2023-03-23T20:09:52.598Z,6.60
2023-03-23T20:13:20.232Z,7.00
2023-03-23T20:16:47.659Z,6.70
2023-03-23T20:20:15.760Z,7.20
2023-03-23T20:23:45.200Z,8.50
2023-03-23T20:27:13.491Z,6.60
2023-03-23T20:30:40.447Z,6.60
2023-03-23T20:34:10.842Z,8.00
2023-03-23T20:37:41.296Z,8.90
2023-03-23T20:41:12.281Z,7.20
2023-03-23T20:44:39.904Z,8.30
2023-03-23T20:48:09.830Z,8.70
2023-03-23T20:51:37.519Z,9.20
2023-03-23T20:55:06.164Z,17.70
2023-03-23T20:58:34.651Z,13.50
2023-03-23T21:02:03.036Z,13.80
2023-03-23T21:05:30.275Z,12.60
2023-03-23T21:08:58.898Z,12.40
2023-03-23T21:12:26.206Z,12.60
2023-03-23T21:15:55.276Z,13.20
2023-03-23T21:19:27.768Z,13.20
2023-03-23T21:22:55.147Z,14.00
2023-03-23T21:26:25.694Z,14.10
2023-03-23T21:30:18.578Z,14.40
2023-03-23T21:33:45.670Z,14.80
2023-03-23T21:37:15.370Z,15.50
2023-03-23T21:40:46.721Z,13.80
2023-03-23T21:44:15.604Z,12.20
2023-03-23T21:47:43.420Z,11.70
2023-03-23T21:51:16.521Z,11.10
2023-03-23T21:54:43.879Z,12.70
2023-03-23T21:58:11.326Z,11.30
2023-03-23T22:01:40.613Z,11.60
2023-03-23T22:05:08.404Z,11.20
2023-03-23T22:08:35.631Z,11.60
2023-03-23T22:12:02.712Z,12.40
2023-03-23T22:15:29.775Z,12.30
2023-03-23T22:18:59.668Z,12.90
2023-03-23T22:22:28.022Z,14.10
2023-03-23T22:25:55.980Z,14.30
2023-03-23T22:29:23.212Z,19.90
2023-03-23T22:32:50.277Z,20.50
2023-03-23T22:36:17.896Z,18.80
2023-03-23T22:39:47.040Z,18.30
2023-03-23T22:43:13.980Z,19.60
2023-03-23T22:46:41.167Z,19.90
2023-03-23T22:50:09.542Z,21.60
2023-03-23T22:53:36.734Z,19.70
2023-03-23T22:57:09.064Z,21.10
2023-03-23T23:00:43.887Z,20.60
2023-03-23T23:04:16.138Z,18.80
2023-03-23T23:07:45.127Z,18.90
2023-03-23T23:11:21.804Z,19.60
2023-03-23T23:14:49.083Z,21.20
2023-03-23T23:18:17.880Z,22.40
2023-03-23T23:21:44.841Z,23.10
2023-03-23T23:25:11.736Z,23.70
2023-03-23T23:28:39.345Z,21.80
2023-03-23T23:32:07.058Z,20.90
2023-03-23T23:35:35.321Z,19.40
2023-03-23T23:39:07.968Z,19.40
2023-03-23T23:42:36.379Z,19.60
2023-03-23T23:46:09.447Z,17.00
2023-03-23T23:49:36.238Z,16.30
2023-03-23T23:53:05.299Z,15.60
2023-03-23T23:56:32.901Z,13.60
